Latest Weather Observations for Palmerville

IDQ60801

Issued at 9:05 pm EST Wednesday 17 September 2014 (issued every 30 minutes, with the page automatically refreshed every 10 minutes)

About weather observations | Map of weather stations | Latest weather observations for QLD | Other Formats
Station Details ID: 028004 Name: PALMERVILLE Lat: -16.00 Lon: 144.08 Height: 203.8 m
Data from the previous 72 hours. | See also: Recent months at Palmerville
Date/Time
EST
Temp
°C
App
Temp
°C
Dew
Point
Rel
Hum
%
Delta-T
°C
Wind Press
QNH
hPa
Press
MSL
hPa
Rain
since 9 am
mm
Dir
 
Spd
km/h
Gust
km/h
Spd
kts
Gust
kts
17/09:00pm 23.5 20.7 2.9 26 10.0 E 7 11 4 6 1015.4 1014.3 -
17/08:30pm 24.8 22.2 4.0 26 10.4 ENE 7 11 4 6 1015.1 1014.0 -
17/08:00pm 25.5 22.8 3.5 24 10.9 ENE 7 11 4 6 1014.7 1013.6 -
17/07:30pm 26.7 22.8 3.2 22 11.7 ENE 13 20 7 11 1014.0 1012.9 -
17/07:00pm 27.3 23.2 2.4 20 12.3 ENE 13 20 7 11 1013.6 1012.5 -
17/06:30pm 28.4 23.8 1.8 18 13.1 NE 15 28 8 15 1013.2 1012.1 -
17/06:00pm 29.7 25.6 2.1 17 13.8 ENE 13 17 7 9 1012.7 1011.6 -
17/05:30pm 30.9 25.7 2.2 16 14.4 NNE 19 30 10 16 1012.1 1011.0 0.0
17/05:00pm 33.4 28.8 -3.7 9 17.2 ENE 11 17 6 9 1012.0 1010.9 0.0
17/04:30pm 33.7 29.7 -2.1 10 17.1 ENE 9 15 5 8 1011.8 1010.7 0.0
17/04:00pm 33.8 29.6 -3.5 9 17.4 SE 9 19 5 10 1011.8 1010.7 0.0
17/03:30pm 34.0 28.7 -3.3 9 17.5 S 15 28 8 15 1011.9 1010.8 0.0
17/03:00pm 33.7 29.3 -2.1 10 17.1 E 11 22 6 12 1012.1 1011.0 0.0
17/02:30pm 33.5 29.3 -1.0 11 16.7 E 11 20 6 11 1012.4 1011.3 0.0
17/02:00pm 34.1 29.2 -0.5 11 17.0 SSE 15 28 8 15 1012.9 1011.8 0.0
17/01:30pm 33.8 29.6 -0.7 11 16.9 ESE 11 15 6 8 1013.3 1012.2 0.0
17/01:00pm 33.6 27.7 -0.9 11 16.8 SSE 20 33 11 18 1013.8 1012.7 0.0
17/12:30pm 32.8 26.4 -1.5 11 16.4 SE 22 33 12 18 1014.2 1013.1 0.0
17/12:24pm 33.0 25.7 -0.2 12 16.3 SSE 28 33 15 18 1014.3 1013.2 0.0
17/12:00pm 30.8 28.7 6.6 22 13.1 W 7 15 4 8 1014.8 1013.7 0.0
17/11:30am 31.6 29.3 7.3 22 13.4 SSE 9 17 5 9 1015.5 1014.4 0.0
17/11:00am 30.1 28.1 7.3 24 12.4 ENE 7 19 4 10 1016.0 1014.9 0.0
17/10:30am 28.1 26.3 9.4 31 10.5 NNE 9 15 5 8 1016.6 1015.5 0.0
17/10:00am 27.1 25.5 10.3 35 9.5 E 9 17 5 9 1017.1 1016.0 0.0
17/09:30am 25.8 24.7 10.8 39 8.5 ENE 7 13 4 7 1017.3 1016.3 0.0
17/09:00am 24.6 25.0 14.7 54 5.9 ESE 6 11 3 6 1017.2 1016.1 0.0
17/08:30am 22.3 22.7 14.7 62 4.5 NNE 6 9 3 5 1017.0 1015.9 0.0
17/08:00am 21.3 23.1 15.6 70 3.4 CALM 0 0 0 0 1016.8 1015.7 0.0
17/07:30am 18.0 19.7 15.3 84 1.6 CALM 0 0 0 0 1016.7 1015.6 0.0
17/07:00am 15.6 17.4 15.6 100 0.0 CALM 0 0 0 0 1016.4 1015.3 0.0
17/06:30am 14.8 16.3 14.6 99 0.1 CALM 0 0 0 0 1016.2 1015.1 0.0
17/06:00am 15.2 16.7 14.6 96 0.3 NE 0 6 0 3 1015.8 1014.7 0.0
17/05:30am 15.5 16.8 14.0 91 0.9 CALM 0 0 0 0 1015.6 1014.5 0.0
17/05:00am 16.4 17.9 14.6 89 1.0 CALM 0 0 0 0 1015.4 1014.3 0.0
17/04:30am 17.1 17.5 14.7 86 1.4 SW 6 9 3 5 1015.3 1014.2 0.0
17/04:00am 17.5 18.7 14.8 84 1.6 NW 2 7 1 4 1014.4 1013.3 0.0
17/03:30am 17.9 19.5 14.8 82 1.8 CALM 0 6 0 3 1014.6 1013.5 0.0
17/03:00am 18.7 20.3 14.8 78 2.3 CALM 0 0 0 0 1014.7 1013.6 0.0
17/02:30am 18.7 19.7 14.2 75 2.6 E 2 6 1 3 1014.7 1013.6 0.0
17/02:00am 19.5 20.6 14.5 73 2.9 ESE 2 7 1 4 1014.9 1013.8 0.0
17/01:30am 20.0 20.7 14.4 70 3.3 E 4 7 2 4 1014.9 1013.8 0.0
17/01:00am 20.8 21.0 14.7 68 3.6 NE 7 15 4 8 1015.2 1014.1 0.0
17/12:30am 20.9 20.6 14.3 66 3.9 NNE 9 13 5 7 1015.5 1014.4 0.0
17/12:00am 21.0 21.5 13.9 64 4.1 E 4 9 2 5 1015.6 1014.5 0.0
 
Date/Time
EST
Temp
°C
App
Temp
°C
Dew
Point
Rel
Hum
%
Delta-T
°C
Wind Press
QNH
hPa
Press
MSL
hPa
Rain
since 9 am
mm
Dir
 
Spd
km/h
Gust
km/h
Spd
kts
Gust
kts
16/11:30pm 21.7 21.3 14.1 62 4.5 NE 9 17 5 9 1015.6 1014.5 0.0
16/11:00pm 22.2 21.0 14.1 60 4.8 NNE 13 17 7 9 1015.8 1014.7 0.0
16/10:30pm 22.6 20.6 13.9 58 5.1 NNE 17 24 9 13 1015.6 1014.5 0.0
16/10:00pm 23.2 22.1 14.2 57 5.3 NE 13 22 7 12 1015.3 1014.2 0.0
16/09:30pm 23.8 22.8 14.5 56 5.6 ENE 13 19 7 10 1015.1 1014.0 0.0
16/09:00pm 24.5 23.0 14.3 53 6.1 ENE 15 24 8 13 1014.6 1013.5 0.0
16/08:30pm 25.2 24.0 14.0 49 6.7 ENE 13 20 7 11 1014.2 1013.1 0.0
16/08:00pm 25.9 24.4 14.1 48 7.1 NE 15 26 8 14 1013.5 1012.4 0.0
16/07:30pm 26.4 24.7 13.5 45 7.7 NNE 15 28 8 15 1013.2 1012.1 0.0
16/07:00pm 26.9 25.3 14.0 45 7.7 NNE 15 24 8 13 1012.6 1011.5 0.0
16/06:30pm 27.4 26.0 14.4 45 7.9 NNE 15 24 8 13 1012.1 1011.0 0.0
16/06:00pm 28.5 26.0 14.0 41 8.8 NNE 20 33 11 18 1011.5 1010.4 0.0
16/05:30pm 31.8 30.3 6.8 21 13.7 N 4 9 2 5 1010.7 1009.6 0.0
16/05:00pm 32.9 31.1 7.0 20 14.3 S 6 9 3 5 1010.6 1009.5 0.0
16/04:30pm 33.3 31.0 7.3 20 14.4 SE 9 17 5 9 1010.5 1009.4 0.0
16/04:00pm 32.0 28.8 7.0 21 13.7 NNE 13 20 7 11 1010.6 1009.5 0.0
16/03:30pm 32.3 29.9 7.2 21 13.8 E 9 15 5 8 1010.6 1009.5 0.0
16/03:00pm 32.9 30.8 8.4 22 13.8 SW 9 17 5 9 1010.9 1009.8 0.0
16/02:30pm 33.0 30.8 7.8 21 14.1 S 9 17 5 9 1011.5 1010.4 0.0
16/02:00pm 32.9 29.3 9.7 24 13.3 WNW 19 22 10 12 1011.9 1010.8 0.0
16/01:30pm 31.3 28.7 9.5 26 12.4 WSW 13 22 7 12 1012.5 1011.4 0.0
16/01:00pm 31.3 29.7 10.1 27 12.2 ESE 9 13 5 7 1013.2 1012.1 0.0
16/12:30pm 29.5 27.4 9.6 29 11.2 SSE 11 19 6 10 1013.8 1012.7 0.0
16/12:00pm 29.4 27.8 11.5 33 10.4 WSW 11 20 6 11 1014.5 1013.4 0.0
16/11:30am 29.5 28.9 12.4 35 10.1 S 7 13 4 7 1015.2 1014.1 0.0
16/11:00am 29.1 28.7 12.9 37 9.6 SSE 7 17 4 9 1015.7 1014.6 0.0
16/10:30am 26.7 26.4 13.4 43 7.9 E 7 13 4 7 1016.4 1015.3 0.0
16/10:00am 25.6 25.0 13.5 47 7.2 ENE 9 15 5 8 1016.9 1015.8 0.0
16/09:30am 25.7 25.1 14.5 50 6.7 ESE 11 17 6 9 1017.1 1016.0 0.0
16/09:00am 24.5 24.5 14.3 53 6.1 E 7 19 4 10 1017.2 1016.1 0.0
16/08:30am 22.5 23.0 15.1 63 4.4 N 6 11 3 6 1017.2 1016.1 0.0
16/08:00am 20.7 22.1 15.3 71 3.2 NE 2 6 1 3 1016.9 1015.8 0.0
16/07:30am 18.8 20.6 15.5 81 2.0 CALM 0 0 0 0 1016.6 1015.5 0.0
16/07:00am 16.5 18.6 16.3 99 0.1 CALM 0 6 0 3 1016.1 1015.0 0.0
16/06:30am 15.6 17.0 15.3 98 0.2 NW 2 6 1 3 1015.8 1014.7 0.0
16/06:00am 15.6 16.5 15.0 96 0.3 S 4 9 2 5 1015.4 1014.3 0.0
16/05:30am 16.1 17.7 15.0 93 0.6 CALM 0 0 0 0 1014.7 1013.6 0.0
16/05:00am 16.5 17.6 14.7 89 1.0 S 2 7 1 4 1014.5 1013.4 0.0
16/04:30am 17.2 18.1 15.2 88 1.2 NNW 4 7 2 4 1014.2 1013.1 0.0
16/04:00am 16.9 17.2 14.4 85 1.4 N 6 9 3 5 1014.1 1013.0 0.0
16/03:30am 18.3 18.7 15.2 82 1.8 ENE 7 11 4 6 1013.7 1012.6 0.0
16/03:00am 18.5 18.9 15.4 82 1.8 ENE 7 11 4 6 1013.7 1012.6 0.0
16/02:30am 18.1 19.4 15.2 83 1.7 ESE 2 9 1 5 1014.1 1013.0 0.0
16/02:00am 18.6 19.1 15.1 80 2.1 E 6 7 3 4 1014.6 1013.5 0.0
16/01:30am 18.5 20.0 14.6 78 2.3 CALM 0 0 0 0 1014.7 1013.6 0.0
16/01:00am 19.0 19.8 14.9 77 2.4 E 4 7 2 4 1014.7 1013.6 0.0
16/12:30am 19.4 20.2 14.9 75 2.7 ESE 4 7 2 4 1014.9 1013.8 0.0
16/12:00am 20.1 21.5 14.5 70 3.3 CALM 0 6 0 3 1015.0 1013.9 0.0
 
Date/Time
EST
Temp
°C
App
Temp
°C
Dew
Point
Rel
Hum
%
Delta-T
°C
Wind Press
QNH
hPa
Press
MSL
hPa
Rain
since 9 am
mm
Dir
 
Spd
km/h
Gust
km/h
Spd
kts
Gust
kts
15/11:30pm 20.8 22.0 14.9 69 3.5 N 2 6 1 3 1014.9 1013.8 0.0
15/11:00pm 21.7 21.7 15.3 67 3.8 NNE 9 11 5 6 1014.7 1013.6 0.0
15/10:30pm 22.0 22.0 15.1 65 4.1 ENE 9 17 5 9 1014.4 1013.3 0.0
15/10:00pm 22.4 21.9 15.0 63 4.4 ENE 11 19 6 10 1014.4 1013.3 0.0
15/09:30pm 22.9 22.3 14.7 60 4.9 ENE 11 17 6 9 1014.1 1013.0 0.0
15/09:00pm 23.5 22.4 14.2 56 5.5 NE 13 20 7 11 1013.9 1012.8 0.0
15/08:30pm 24.1 22.9 13.9 53 6.0 ENE 13 22 7 12 1013.8 1012.7 0.0
15/08:00pm 25.3 23.3 13.8 49 6.8 NE 17 26 9 14 1012.9 1011.8 0.0
15/07:30pm 26.0 23.5 14.1 47 7.1 NNE 20 30 11 16 1012.4 1011.3 0.0
15/07:00pm 27.0 24.7 14.1 45 7.8 NNE 19 28 10 15 1012.0 1010.9 0.0
15/06:30pm 28.8 26.9 6.8 25 11.8 S 6 7 3 4 1011.3 1010.2 0.0
15/06:00pm 30.6 28.8 7.1 23 12.8 SSW 6 9 3 5 1011.0 1009.9 0.0
15/05:30pm 31.4 28.6 7.1 22 13.3 S 11 17 6 9 1010.9 1009.8 0.0
15/05:00pm 32.0 29.2 7.0 21 13.7 S 11 17 6 9 1010.8 1009.7 0.0
15/04:30pm 32.2 29.4 7.1 21 13.8 WSW 11 15 6 8 1010.7 1009.6 0.0
15/04:00pm 32.8 30.0 6.9 20 14.3 SW 11 15 6 8 1010.6 1009.5 0.0
15/03:30pm 33.0 30.1 6.3 19 14.6 SW 11 20 6 11 1010.7 1009.6 0.0
15/03:00pm 32.9 29.9 6.2 19 14.5 SSW 11 24 6 13 1011.0 1009.9 0.0
15/02:30pm 31.5 28.5 5.8 20 13.8 WSW 11 20 6 11 1011.4 1010.3 0.0
15/02:00pm 32.2 29.8 7.1 21 13.8 ENE 9 20 5 11 1011.9 1010.8 0.0
15/01:30pm 31.3 28.8 6.4 21 13.5 SSE 9 19 5 10 1012.5 1011.4 0.0
15/01:00pm 30.5 27.6 6.4 22 13.0 SSE 11 20 6 11 1013.2 1012.1 0.0
15/12:30pm 30.0 27.9 6.6 23 12.6 SSW 7 15 4 8 1013.8 1012.7 0.0
15/12:00pm 29.4 26.6 8.5 27 11.6 SE 13 20 7 11 1014.4 1013.3 0.0
15/11:30am 28.9 26.5 8.6 28 11.3 E 11 20 6 11 1015.0 1013.9 0.0
15/11:00am 28.2 26.4 9.5 31 10.5 E 9 20 5 11 1015.5 1014.4 0.0
15/10:30am 27.0 24.9 9.8 34 9.6 ENE 11 17 6 9 1016.0 1014.9 0.0
15/10:00am 26.0 24.2 11.0 39 8.5 ESE 11 17 6 9 1016.3 1015.2 0.0
15/09:30am 24.3 23.1 11.6 45 7.2 ENE 9 15 5 8 1016.4 1015.3 0.0
15/09:00am 23.2 22.3 12.5 51 6.2 E 9 15 5 8 1016.5 1015.4 -
15/08:30am 21.5 21.1 12.9 58 4.9 ENE 7 11 4 6 1016.4 1015.3 -
15/08:00am 19.8 20.3 14.0 69 3.4 ENE 4 9 2 5 1016.2 1015.1 -
15/07:30am 17.2 18.8 14.8 86 1.4 CALM 0 0 0 0 1015.9 1014.8 -
15/07:00am 14.8 16.4 14.8 100 0.0 CALM 0 7 0 4 1015.6 1014.5 -
15/06:30am 13.9 15.1 13.7 99 0.1 CALM 0 0 0 0 1015.4 1014.3 -
15/06:00am 14.2 15.5 14.0 99 0.1 CALM 0 0 0 0 1015.2 1014.1 -
15/05:30am 14.6 16.0 14.3 98 0.2 CALM 0 0 0 0 1014.9 1013.8 -
15/05:00am 15.1 16.3 13.8 92 0.7 CALM 0 0 0 0 1014.6 1013.5 -
15/04:30am 15.5 16.2 14.4 93 0.6 SSE 4 9 2 5 1014.2 1013.1 -
15/04:00am 16.1 17.7 14.8 92 0.8 CALM 0 0 0 0 1013.9 1012.8 -
15/03:30am 16.8 17.1 14.4 86 1.4 E 6 7 3 4 1013.6 1012.5 -
15/03:00am 17.2 17.6 14.8 86 1.4 E 6 9 3 5 1013.7 1012.6 0.0
15/02:30am 17.0 17.2 14.3 84 1.6 E 6 7 3 4 1014.0 1012.9 -
15/02:00am 17.0 17.2 14.1 83 1.7 E 6 7 3 4 1014.2 1013.1 -
15/01:30am 17.4 17.9 14.1 81 1.9 N 4 7 2 4 1014.5 1013.4 -
15/01:00am 18.1 19.7 14.8 81 1.9 CALM 0 0 0 0 1014.5 1013.4 -
15/12:30am 18.7 19.9 13.8 73 2.8 CALM 0 0 0 0 1014.7 1013.6 -
15/12:00am 19.5 20.7 13.7 69 3.4 CALM 0 0 0 0 1015.0 1013.9 -
 
Date/Time
EST
Temp
°C
App
Temp
°C
Dew
Point
Rel
Hum
%
Delta-T
°C
Wind Press
QNH
hPa
Press
MSL
hPa
Rain
since 9 am
mm
Dir
 
Spd
km/h
Gust
km/h
Spd
kts
Gust
kts
14/11:30pm 20.4 21.0 14.3 68 3.6 ENE 4 11 2 6 1015.0 1013.9 -
14/11:00pm 20.7 21.2 13.9 65 4.0 ENE 4 9 2 5 1014.9 1013.8 -
14/10:30pm 21.1 21.8 13.3 61 4.5 NNE 2 9 1 5 1014.9 1013.8 -
14/10:00pm 21.7 21.4 13.3 59 4.9 NE 7 13 4 7 1014.9 1013.8 -
14/09:30pm 21.9 21.2 13.3 58 5.0 NE 9 15 5 8 1014.9 1013.8 -

Other Formats:

Comma delimited format used in spreadsheet applications
http://www.bom.gov.au/fwo/IDQ60801/IDQ60801.94276.axf

JavaScript Object Notation format (JSON) in row-major order
http://www.bom.gov.au/fwo/IDQ60801/IDQ60801.94276.json